sensor_id;sensor_type;location;lat;lon;timestamp;pressure;altitude;pressure_sealevel;temperature;humidity
43878;BME280;29815;48.184;11.268;2023-02-13T03:01:11;97384.81;;;0.57;100.00
43878;BME280;29815;48.184;11.268;2023-02-13T03:04:02;97387.13;;;0.60;100.00
43878;BME280;29815;48.184;11.268;2023-02-13T03:06:53;97389.94;;;0.58;100.00
43878;BME280;29815;48.184;11.268;2023-02-13T03:09:29;97390.09;;;0.57;100.00
43878;BME280;29815;48.184;11.268;2023-02-13T03:12:21;97385.66;;;0.57;100.00
43878;BME280;29815;48.184;11.268;2023-02-13T03:15:10;97381.69;;;0.53;100.00
43878;BME280;29815;48.184;11.268;2023-02-13T03:17:42;97379.88;;;0.54;100.00
43878;BME280;29815;48.184;11.268;2023-02-13T03:20:39;97384.50;;;0.52;100.00
43878;BME280;29815;48.184;11.268;2023-02-13T03:23:43;97388.13;;;0.51;100.00
43878;BME280;29815;48.184;11.268;2023-02-13T03:26:40;97385.81;;;0.48;100.00
43878;BME280;29815;48.184;11.268;2023-02-13T03:29:27;97394.09;;;0.53;100.00
43878;BME280;29815;48.184;11.268;2023-02-13T03:32:27;97401.53;;;0.49;100.00
43878;BME280;29815;48.184;11.268;2023-02-13T03:35:20;97399.88;;;0.48;100.00
43878;BME280;29815;48.184;11.268;2023-02-13T03:38:17;97398.88;;;0.49;100.00
43878;BME280;29815;48.184;11.268;2023-02-13T03:40:54;97397.06;;;0.50;100.00
43878;BME280;29815;48.184;11.268;2023-02-13T03:43:52;97398.72;;;0.51;100.00
43878;BME280;29815;48.184;11.268;2023-02-13T03:46:30;97395.91;;;0.52;100.00
43878;BME280;29815;48.184;11.268;2023-02-13T03:49:05;97391.78;;;0.50;100.00
43878;BME280;29815;48.184;11.268;2023-02-13T03:51:59;97396.91;;;0.51;100.00
43878;BME280;29815;48.184;11.268;2023-02-13T03:54:36;97391.94;;;0.48;100.00
43878;BME280;29815;48.184;11.268;2023-02-13T03:57:27;97396.25;;;0.49;100.00
43878;BME280;29815;48.184;11.268;2023-02-13T04:00:19;97393.59;;;0.49;100.00
43878;BME280;29815;48.184;11.268;2023-02-13T04:02:59;97396.09;;;0.51;100.00
43878;BME280;29815;48.184;11.268;2023-02-13T04:05:35;97400.56;;;0.50;100.00
43878;BME280;29815;48.184;11.268;2023-02-13T04:08:10;97402.22;;;0.51;100.00
43878;BME280;29815;48.184;11.268;2023-02-13T04:10:48;97404.03;;;0.51;100.00
43878;BME280;29815;48.184;11.268;2023-02-13T04:13:26;97403.19;;;0.50;100.00
43878;BME280;29815;48.184;11.268;2023-02-13T04:16:06;97404.03;;;0.51;100.00
43878;BME280;29815;48.184;11.268;2023-02-13T04:18:38;97410.00;;;0.53;100.00
43878;BME280;29815;48.184;11.268;2023-02-13T04:21:08;97413.63;;;0.52;100.00
43878;BME280;29815;48.184;11.268;2023-02-13T04:23:40;97411.81;;;0.52;100.00
43878;BME280;29815;48.184;11.268;2023-02-13T04:26:21;97418.78;;;0.53;100.00
43878;BME280;29815;48.184;11.268;2023-02-13T04:28:51;97407.19;;;0.54;100.00
43878;BME280;29815;48.184;11.268;2023-02-13T04:31:20;97406.16;;;0.55;100.00
43878;BME280;29815;48.184;11.268;2023-02-13T04:33:50;97414.13;;;0.55;100.00
43878;BME280;29815;48.184;11.268;2023-02-13T04:36:20;97405.34;;;0.55;100.00
43878;BME280;29815;48.184;11.268;2023-02-13T04:38:51;97406.84;;;0.57;100.00
43878;BME280;29815;48.184;11.268;2023-02-13T04:41:20;97404.34;;;0.56;100.00
43878;BME280;29815;48.184;11.268;2023-02-13T04:43:50;97411.31;;;0.57;100.00
43878;BME280;29815;48.184;11.268;2023-02-13T04:46:19;97410.63;;;0.55;100.00
43878;BME280;29815;48.184;11.268;2023-02-13T04:48:49;97414.13;;;0.55;100.00
43878;BME280;29815;48.184;11.268;2023-02-13T04:51:19;97408.19;;;0.53;100.00
43878;BME280;29815;48.184;11.268;2023-02-13T04:53:49;97409.00;;;0.54;100.00
43878;BME280;29815;48.184;11.268;2023-02-13T04:56:19;97409.00;;;0.54;100.00
43878;BME280;29815;48.184;11.268;2023-02-13T04:58:49;97407.34;;;0.53;100.00
43878;BME280;29815;48.184;11.268;2023-02-13T05:01:19;97409.84;;;0.54;100.00
43878;BME280;29815;48.184;11.268;2023-02-13T05:03:49;97409.00;;;0.54;100.00
43878;BME280;29815;48.184;11.268;2023-02-13T05:06:19;97409.00;;;0.54;100.00
43878;BME280;29815;48.184;11.268;2023-02-13T05:08:50;97400.03;;;0.55;100.00
43878;BME280;29815;48.184;11.268;2023-02-13T05:11:20;97407.00;;;0.56;100.00
43878;BME280;29815;48.184;11.268;2023-02-13T05:13:49;97410.31;;;0.58;100.00
43878;BME280;29815;48.184;11.268;2023-02-13T05:16:19;97414.63;;;0.59;100.00
43878;BME280;29815;48.184;11.268;2023-02-13T05:18:48;97415.44;;;0.59;100.00
43878;BME280;29815;48.184;11.268;2023-02-13T05:21:21;97405.69;;;0.60;100.00
43878;BME280;29815;48.184;11.268;2023-02-13T05:24:10;97403.19;;;0.58;100.00
43878;BME280;29815;48.184;11.268;2023-02-13T05:26:39;97401.53;;;0.57;100.00
43878;BME280;29815;48.184;11.268;2023-02-13T05:29:09;97410.31;;;0.58;100.00
43878;BME280;29815;48.184;11.268;2023-02-13T05:31:52;97414.78;;;0.57;100.00
43878;BME280;29815;48.184;11.268;2023-02-13T05:34:24;97418.25;;;0.58;100.00
43878;BME280;29815;48.184;11.268;2023-02-13T05:36:55;97416.75;;;0.55;100.00
43878;BME280;29815;48.184;11.268;2023-02-13T05:39:25;97416.28;;;0.60;100.00
43878;BME280;29815;48.184;11.268;2023-02-13T05:41:55;97410.16;;;0.59;100.00
43878;BME280;29815;48.184;11.268;2023-02-13T05:44:24;97415.44;;;0.59;100.00
43878;BME280;29815;48.184;11.268;2023-02-13T05:46:54;97413.63;;;0.60;100.00
43878;BME280;29815;48.184;11.268;2023-02-13T05:49:23;97422.72;;;0.57;100.00
43878;BME280;29815;48.184;11.268;2023-02-13T05:51:52;97417.44;;;0.57;100.00
43878;BME280;29815;48.184;11.268;2023-02-13T05:54:22;97423.72;;;0.56;100.00
43878;BME280;29815;48.184;11.268;2023-02-13T05:56:53;97423.72;;;0.56;100.00
43878;BME280;29815;48.184;11.268;2023-02-13T05:59:22;97423.72;;;0.56;100.00
43878;BME280;29815;48.184;11.268;2023-02-13T06:01:52;97430.00;;;0.55;100.00
43878;BME280;29815;48.184;11.268;2023-02-13T06:04:22;97424.72;;;0.55;100.00
43878;BME280;29815;48.184;11.268;2023-02-13T06:06:51;97430.00;;;0.55;100.00
43878;BME280;29815;48.184;11.268;2023-02-13T06:09:21;97438.31;;;0.52;100.00
43878;BME280;29815;48.184;11.268;2023-02-13T06:11:52;97428.84;;;0.50;100.00
43878;BME280;29815;48.184;11.268;2023-02-13T06:14:22;97435.00;;;0.50;100.00
43878;BME280;29815;48.184;11.268;2023-02-13T06:16:51;97440.75;;;0.46;100.00
43878;BME280;29815;48.184;11.268;2023-02-13T06:19:21;97438.28;;;0.44;100.00
43878;BME280;29815;48.184;11.268;2023-02-13T06:21:51;97440.09;;;0.44;100.00
43878;BME280;29815;48.184;11.268;2023-02-13T06:24:20;97443.72;;;0.43;100.00
43878;BME280;29815;48.184;11.268;2023-02-13T06:26:51;97447.38;;;0.42;100.00
43878;BME280;29815;48.184;11.268;2023-02-13T06:29:21;97447.22;;;0.43;100.00
43878;BME280;29815;48.184;11.268;2023-02-13T06:31:50;97443.09;;;0.49;100.00
43878;BME280;29815;48.184;11.268;2023-02-13T06:34:20;97447.72;;;0.47;100.00
43878;BME280;29815;48.184;11.268;2023-02-13T06:36:49;97451.66;;;0.43;100.00
43878;BME280;29815;48.184;11.268;2023-02-13T06:39:19;97448.03;;;0.44;100.00
43878;BME280;29815;48.184;11.268;2023-02-13T06:41:49;97445.38;;;0.44;100.00
43878;BME280;29815;48.184;11.268;2023-02-13T06:44:20;97454.16;;;0.44;100.00
43878;BME280;29815;48.184;11.268;2023-02-13T06:46:49;97455.81;;;0.45;100.00
43878;BME280;29815;48.184;11.268;2023-02-13T06:49:19;97460.97;;;0.47;100.00
43878;BME280;29815;48.184;11.268;2023-02-13T06:51:48;97462.94;;;0.45;100.00
43878;BME280;29815;48.184;11.268;2023-02-13T06:54:18;97460.28;;;0.45;100.00
43878;BME280;29815;48.184;11.268;2023-02-13T06:56:47;97468.25;;;0.45;100.00
43878;BME280;29815;48.184;11.268;2023-02-13T06:59:16;97473.38;;;0.46;100.00
43878;BME280;29815;48.184;11.268;2023-02-13T07:01:47;97467.94;;;0.48;100.00
43878;BME280;29815;48.184;11.268;2023-02-13T07:04:17;97480.03;;;0.50;100.00
43878;BME280;29815;48.184;11.268;2023-02-13T07:06:46;97478.38;;;0.49;100.00
43878;BME280;29815;48.184;11.268;2023-02-13T07:09:15;97480.84;;;0.51;100.00
43878;BME280;29815;48.184;11.268;2023-02-13T07:11:45;97479.88;;;0.52;100.00
43878;BME280;29815;48.184;11.268;2023-02-13T07:14:15;97485.16;;;0.52;100.00
43878;BME280;29815;48.184;11.268;2023-02-13T07:16:44;97488.47;;;0.54;100.00
43878;BME280;29815;48.184;11.268;2023-02-13T07:19:15;97481.38;;;0.54;100.00
43878;BME280;29815;48.184;11.268;2023-02-13T07:21:45;97481.19;;;0.56;100.00
43878;BME280;29815;48.184;11.268;2023-02-13T07:24:14;97490.63;;;0.58;100.00
43878;BME280;29815;48.184;11.268;2023-02-13T07:26:44;97484.50;;;0.58;100.00
43878;BME280;29815;48.184;11.268;2023-02-13T07:29:13;97487.16;;;0.58;100.00
43878;BME280;29815;48.184;11.268;2023-02-13T07:31:44;97482.84;;;0.57;100.00
43878;BME280;29815;48.184;11.268;2023-02-13T07:34:15;97482.84;;;0.57;100.00
43878;BME280;29815;48.184;11.268;2023-02-13T07:36:45;97489.78;;;0.58;100.00
43878;BME280;29815;48.184;11.268;2023-02-13T07:39:14;97493.78;;;0.62;100.00
43878;BME280;29815;48.184;11.268;2023-02-13T07:41:44;97496.59;;;0.60;100.00
43878;BME280;29815;48.184;11.268;2023-02-13T07:44:16;97502.88;;;0.59;100.00
43878;BME280;29815;48.184;11.268;2023-02-13T07:46:45;97499.09;;;0.62;100.00
43878;BME280;29815;48.184;11.268;2023-02-13T07:49:16;97507.19;;;0.60;100.00
43878;BME280;29815;48.184;11.268;2023-02-13T07:51:46;97505.69;;;0.58;100.00
43878;BME280;29815;48.184;11.268;2023-02-13T07:54:15;97510.31;;;0.56;100.00
43878;BME280;29815;48.184;11.268;2023-02-13T07:56:44;97513.31;;;0.53;100.00
43878;BME280;29815;48.184;11.268;2023-02-13T07:59:14;97513.31;;;0.53;100.00
43878;BME280;29815;48.184;11.268;2023-02-13T08:01:44;97515.81;;;0.54;100.00
43878;BME280;29815;48.184;11.268;2023-02-13T08:04:15;97516.78;;;0.53;100.00
43878;BME280;29815;48.184;11.268;2023-02-13T08:06:45;97520.09;;;0.55;100.00
43878;BME280;29815;48.184;11.268;2023-02-13T08:09:19;97518.47;;;0.54;100.00
43878;BME280;29815;48.184;11.268;2023-02-13T08:12:08;97520.75;;;0.57;100.00
43878;BME280;29815;48.184;11.268;2023-02-13T08:14:38;97515.31;;;0.59;100.00
43878;BME280;29815;48.184;11.268;2023-02-13T08:17:08;97517.78;;;0.60;100.00
43878;BME280;29815;48.184;11.268;2023-02-13T08:19:40;97521.47;;;0.67;100.00
43878;BME280;29815;48.184;11.268;2023-02-13T08:22:10;97514.69;;;0.65;100.00
43878;BME280;29815;48.184;11.268;2023-02-13T08:24:39;97520.97;;;0.64;100.00
43878;BME280;29815;48.184;11.268;2023-02-13T08:27:11;97520.97;;;0.64;100.00
43878;BME280;29815;48.184;11.268;2023-02-13T08:29:41;97526.94;;;0.66;100.00
43878;BME280;29815;48.184;11.268;2023-02-13T08:32:11;97520.81;;;0.65;100.00
43878;BME280;29815;48.184;11.268;2023-02-13T08:34:42;97515.34;;;0.67;100.00
43878;BME280;29815;48.184;11.268;2023-02-13T08:37:12;97515.03;;;0.70;100.00
43878;BME280;29815;48.184;11.268;2023-02-13T08:39:41;97512.22;;;0.72;100.00
43878;BME280;29815;48.184;11.268;2023-02-13T08:42:11;97511.22;;;0.73;100.00
43878;BME280;29815;48.184;11.268;2023-02-13T08:44:43;97517.22;;;0.75;100.00
43878;BME280;29815;48.184;11.268;2023-02-13T08:47:13;97522.66;;;0.73;100.00
43878;BME280;29815;48.184;11.268;2023-02-13T08:49:44;97514.19;;;0.70;100.00
43878;BME280;29815;48.184;11.268;2023-02-13T08:52:13;97515.19;;;0.68;100.00
43878;BME280;29815;48.184;11.268;2023-02-13T08:54:43;97524.97;;;0.68;100.00
43878;BME280;29815;48.184;11.268;2023-02-13T08:57:12;97513.38;;;0.69;100.00
43878;BME280;29815;48.184;11.268;2023-02-13T08:59:42;97519.19;;;0.73;100.00
43878;BME280;29815;48.184;11.268;2023-02-13T09:02:13;97510.91;;;0.76;100.00
43878;BME280;29815;48.184;11.268;2023-02-13T09:04:44;97516.72;;;0.79;100.00
43878;BME280;29815;48.184;11.268;2023-02-13T09:07:13;97523.34;;;0.83;100.00
43878;BME280;29815;48.184;11.268;2023-02-13T09:09:43;97522.50;;;0.83;100.00
43878;BME280;29815;48.184;11.268;2023-02-13T09:12:12;97529.31;;;0.85;100.00
43878;BME280;29815;48.184;11.268;2023-02-13T09:14:42;97535.59;;;0.84;100.00
43878;BME280;29815;48.184;11.268;2023-02-13T09:17:11;97534.28;;;0.80;100.00
43878;BME280;29815;48.184;11.268;2023-02-13T09:19:41;97533.31;;;0.81;100.00
43878;BME280;29815;48.184;11.268;2023-02-13T09:22:12;97537.28;;;0.85;100.00
43878;BME280;29815;48.184;11.268;2023-02-13T09:24:44;97546.06;;;0.86;100.00
43878;BME280;29815;48.184;11.268;2023-02-13T09:27:13;97539.59;;;0.80;100.00
43878;BME280;29815;48.184;11.268;2023-02-13T09:29:43;97539.59;;;0.88;100.00
43878;BME280;29815;48.184;11.268;2023-02-13T09:32:12;97539.59;;;0.88;100.00
43878;BME280;29815;48.184;11.268;2023-02-13T09:34:43;97545.72;;;0.89;100.00
43878;BME280;29815;48.184;11.268;2023-02-13T09:37:14;97538.13;;;0.94;100.00
43878;BME280;29815;48.184;11.268;2023-02-13T09:39:43;97544.28;;;0.94;100.00
43878;BME280;29815;48.184;11.268;2023-02-13T09:42:19;97545.94;;;0.95;100.00
43878;BME280;29815;48.184;11.268;2023-02-13T09:44:54;97540.00;;;1.01;100.00
43878;BME280;29815;48.184;11.268;2023-02-13T09:47:30;97539.47;;;0.98;100.00
43878;BME280;29815;48.184;11.268;2023-02-13T09:50:06;97532.03;;;1.01;100.00
43878;BME280;29815;48.184;11.268;2023-02-13T09:52:45;97531.03;;;1.02;100.00
43878;BME280;29815;48.184;11.268;2023-02-13T09:55:16;97530.72;;;1.06;100.00
43878;BME280;29815;48.184;11.268;2023-02-13T09:57:55;97535.69;;;1.00;100.00
43878;BME280;29815;48.184;11.268;2023-02-13T10:00:32;97534.66;;;0.93;100.00
43878;BME280;29815;48.184;11.268;2023-02-13T10:03:18;97540.28;;;0.90;100.00
43878;BME280;29815;48.184;11.268;2023-02-13T10:06:06;97542.44;;;0.95;100.00
43878;BME280;29815;48.184;11.268;2023-02-13T10:08:57;97540.16;;;1.00;100.00
43878;BME280;29815;48.184;11.268;2023-02-13T10:11:54;97542.00;;;1.08;100.00
43878;BME280;29815;48.184;11.268;2023-02-13T10:14:44;97546.78;;;1.12;100.00
43878;BME280;29815;48.184;11.268;2023-02-13T10:17:26;97545.13;;;1.11;100.00
43878;BME280;29815;48.184;11.268;2023-02-13T10:20:01;97542.66;;;1.10;100.00
43878;BME280;29815;48.184;11.268;2023-02-13T10:22:39;97540.34;;;1.15;100.00
43878;BME280;29815;48.184;11.268;2023-02-13T10:25:16;97544.50;;;1.17;100.00
43878;BME280;29815;48.184;11.268;2023-02-13T10:27:53;97534.91;;;1.24;100.00
43878;BME280;29815;48.184;11.268;2023-02-13T10:30:27;97538.91;;;1.28;100.00
43878;BME280;29815;48.184;11.268;2023-02-13T10:33:03;97542.56;;;1.35;100.00
43878;BME280;29815;48.184;11.268;2023-02-13T10:35:52;97536.91;;;1.39;100.00
43878;BME280;29815;48.184;11.268;2023-02-13T10:38:31;97539.56;;;1.39;100.00
43878;BME280;29815;48.184;11.268;2023-02-13T10:41:24;97536.44;;;1.35;100.00
43878;BME280;29815;48.184;11.268;2023-02-13T10:44:19;97533.94;;;1.33;100.00
43878;BME280;29815;48.184;11.268;2023-02-13T10:47:06;97533.09;;;1.33;100.00
43878;BME280;29815;48.184;11.268;2023-02-13T10:49:56;97535.91;;;1.40;100.00
43878;BME280;29815;48.184;11.268;2023-02-13T10:52:43;97529.59;;;1.41;100.00
43878;BME280;29815;48.184;11.268;2023-02-13T10:59:04;97523.50;;;1.48;100.00
43878;BME280;29815;48.184;11.268;2023-02-13T11:01:45;97520.50;;;1.51;100.00
43878;BME280;29815;48.184;11.268;2023-02-13T11:04:19;97517.69;;;1.53;100.00
43878;BME280;29815;48.184;11.268;2023-02-13T11:06:55;97518.53;;;1.53;100.00
43878;BME280;29815;48.184;11.268;2023-02-13T11:09:27;97514.88;;;1.54;100.00
43878;BME280;29815;48.184;11.268;2023-02-13T11:12:23;97505.59;;;1.58;100.00
43878;BME280;29815;48.184;11.268;2023-02-13T11:14:58;97504.28;;;1.62;100.00
43878;BME280;29815;48.184;11.268;2023-02-13T11:17:31;97508.75;;;1.78;100.00
43878;BME280;29815;48.184;11.268;2023-02-13T11:20:07;97498.59;;;1.65;100.00
43878;BME280;29815;48.184;11.268;2023-02-13T11:22:54;97503.75;;;1.51;100.00
43878;BME280;29815;48.184;11.268;2023-02-13T11:25:26;97509.06;;;1.51;100.00
43878;BME280;29815;48.184;11.268;2023-02-13T11:28:07;97505.25;;;1.53;100.00
43878;BME280;29815;48.184;11.268;2023-02-13T11:30:41;97501.78;;;1.61;100.00
43878;BME280;29815;48.184;11.268;2023-02-13T11:33:22;97493.13;;;1.67;100.00
43878;BME280;29815;48.184;11.268;2023-02-13T11:36:05;97496.13;;;1.72;100.00
43878;BME280;29815;48.184;11.268;2023-02-13T11:38:36;97496.28;;;1.79;100.00
43878;BME280;29815;48.184;11.268;2023-02-13T11:41:09;97492.31;;;1.83;100.00
43878;BME280;29815;48.184;11.268;2023-02-13T11:43:46;97500.59;;;1.88;100.00
43878;BME280;29815;48.184;11.268;2023-02-13T11:46:20;97502.28;;;1.89;100.00
43878;BME280;29815;48.184;11.268;2023-02-13T11:48:58;97498.44;;;1.91;100.00
43878;BME280;29815;48.184;11.268;2023-02-13T11:51:37;97492.44;;;1.97;100.00
43878;BME280;29815;48.184;11.268;2023-02-13T11:54:24;97492.09;;;2.00;100.00
43878;BME280;29815;48.184;11.268;2023-02-13T11:56:59;97494.59;;;2.02;100.00
43878;BME280;29815;48.184;11.268;2023-02-13T11:59:39;97492.44;;;2.06;100.00
43878;BME280;29815;48.184;11.268;2023-02-13T12:02:18;97494.75;;;2.09;100.00
43878;BME280;29815;48.184;11.268;2023-02-13T12:04:51;97493.44;;;2.13;100.00
43878;BME280;29815;48.184;11.268;2023-02-13T12:07:25;97493.75;;;2.18;100.00
43878;BME280;29815;48.184;11.268;2023-02-13T12:10:02;97481.31;;;2.18;100.00
43878;BME280;29815;48.184;11.268;2023-02-13T12:12:41;97487.25;;;2.20;100.00
43878;BME280;29815;48.184;11.268;2023-02-13T12:15:16;97483.25;;;2.24;100.00
43878;BME280;29815;48.184;11.268;2023-02-13T12:18:02;97488.06;;;2.29;100.00
43878;BME280;29815;48.184;11.268;2023-02-13T12:20:43;97491.22;;;2.24;100.00
43878;BME280;29815;48.184;11.268;2023-02-13T12:23:31;97488.41;;;2.26;100.00
43878;BME280;29815;48.184;11.268;2023-02-13T12:26:22;97484.56;;;2.28;100.00
43878;BME280;29815;48.184;11.268;2023-02-13T12:29:21;97475.63;;;2.21;100.00
43878;BME280;29815;48.184;11.268;2023-02-13T12:32:31;97483.97;;;2.18;100.00
43878;BME280;29815;48.184;11.268;2023-02-13T12:35:30;97479.66;;;2.17;100.00
43878;BME280;29815;48.184;11.268;2023-02-13T12:38:21;97467.81;;;2.20;100.00
43878;BME280;29815;48.184;11.268;2023-02-13T12:41:19;97462.84;;;2.25;100.00
43878;BME280;29815;48.184;11.268;2023-02-13T12:44:32;97455.69;;;2.25;100.00
43878;BME280;29815;48.184;11.268;2023-02-13T12:47:15;97450.38;;;2.25;100.00
43878;BME280;29815;48.184;11.268;2023-02-13T12:50:26;97454.53;;;2.28;100.00
43878;BME280;29815;48.184;11.268;2023-02-13T12:53:30;97450.69;;;2.30;100.00
43878;BME280;29815;48.184;11.268;2023-02-13T12:56:15;97451.03;;;2.35;100.00
43878;BME280;29815;48.184;11.268;2023-02-13T12:59:16;97450.50;;;2.40;100.00
43878;BME280;29815;48.184;11.268;2023-02-13T13:02:31;97454.34;;;2.37;100.00
43878;BME280;29815;48.184;11.268;2023-02-13T13:05:25;97455.66;;;2.42;100.00
43878;BME280;29815;48.184;11.268;2023-02-13T13:08:25;97447.63;;;2.50;100.00
43878;BME280;29815;48.184;11.268;2023-02-13T13:11:18;97440.19;;;2.45;100.00
43878;BME280;29815;48.184;11.268;2023-02-13T13:13:57;97439.38;;;2.36;100.00
43878;BME280;29815;48.184;11.268;2023-02-13T13:16:42;97445.53;;;2.37;100.00
43878;BME280;29815;48.184;11.268;2023-02-13T13:19:28;97443.72;;;2.37;100.00
43878;BME280;29815;48.184;11.268;2023-02-13T13:22:12;97443.53;;;2.39;100.00
43878;BME280;29815;48.184;11.268;2023-02-13T13:24:59;97448.03;;;2.38;100.00
43878;BME280;29815;48.184;11.268;2023-02-13T13:27:40;97450.16;;;2.43;100.00
43878;BME280;29815;48.184;11.268;2023-02-13T13:30:18;97449.00;;;2.46;100.00
43878;BME280;29815;48.184;11.268;2023-02-13T13:32:55;97450.16;;;2.43;100.00
43878;BME280;29815;48.184;11.268;2023-02-13T13:35:29;97454.47;;;2.44;100.00
43878;BME280;29815;48.184;11.268;2023-02-13T13:38:10;97447.03;;;2.40;100.00
43878;BME280;29815;48.184;11.268;2023-02-13T13:40:48;97450.69;;;2.38;100.00
43878;BME280;29815;48.184;11.268;2023-02-13T13:43:24;97442.22;;;2.35;100.00
43878;BME280;29815;48.184;11.268;2023-02-13T13:46:05;97450.19;;;2.35;100.00
43878;BME280;29815;48.184;11.268;2023-02-13T13:48:59;97451.84;;;2.36;100.00
43878;BME280;29815;48.184;11.268;2023-02-13T13:51:35;97454.84;;;2.33;100.00
43878;BME280;29815;48.184;11.268;2023-02-13T13:54:24;97456.66;;;2.32;100.00
43878;BME280;29815;48.184;11.268;2023-02-13T13:57:10;97454.00;;;2.32;100.00
43878;BME280;29815;48.184;11.268;2023-02-13T14:00:23;97450.69;;;2.30;100.00
43878;BME280;29815;48.184;11.268;2023-02-13T14:03:23;97458.19;;;2.27;100.00
43878;BME280;29815;48.184;11.268;2023-02-13T14:06:08;97452.22;;;2.25;100.00
43878;BME280;29815;48.184;11.268;2023-02-13T14:12:36;97450.75;;;2.14;100.00
43878;BME280;29815;48.184;11.268;2023-02-13T14:15:47;97453.59;;;2.13;100.00
43878;BME280;29815;48.184;11.268;2023-02-13T14:18:20;97445.97;;;2.10;100.00
43878;BME280;29815;48.184;11.268;2023-02-13T14:20:53;97455.91;;;2.08;100.00
43878;BME280;29815;48.184;11.268;2023-02-13T14:23:44;97448.94;;;2.15;100.00
43878;BME280;29815;48.184;11.268;2023-02-13T14:26:38;97448.41;;;2.19;100.00
43878;BME280;29815;48.184;11.268;2023-02-13T14:29:29;97445.56;;;2.21;100.00
43878;BME280;29815;48.184;11.268;2023-02-13T14:32:20;97443.91;;;2.20;100.00
43878;BME280;29815;48.184;11.268;2023-02-13T14:34:55;97442.47;;;2.17;100.00
43878;BME280;29815;48.184;11.268;2023-02-13T14:37:37;97442.28;;;2.19;100.00
43878;BME280;29815;48.184;11.268;2023-02-13T14:40:52;97438.50;;;2.05;100.00
43878;BME280;29815;48.184;11.268;2023-02-13T14:43:49;97443.31;;;2.01;100.00
43878;BME280;29815;48.184;11.268;2023-02-13T14:46:31;97440.81;;;2.00;100.00
43878;BME280;29815;48.184;11.268;2023-02-13T14:49:11;97443.00;;;1.96;100.00
43878;BME280;29815;48.184;11.268;2023-02-13T14:51:46;97445.97;;;1.93;100.00
43878;BME280;29815;48.184;11.268;2023-02-13T14:54:24;97445.69;;;1.88;100.00
43878;BME280;29815;48.184;11.268;2023-02-13T14:57:05;97444.69;;;1.89;100.00
43878;BME280;29815;48.184;11.268;2023-02-13T14:59:42;97445.16;;;1.93;100.00
43878;BME280;29815;48.184;11.268;2023-02-13T15:02:20;97439.00;;;1.92;100.00
43878;BME280;29815;48.184;11.268;2023-02-13T15:04:56;97439.00;;;1.92;100.00
43878;BME280;29815;48.184;11.268;2023-02-13T15:07:31;97436.19;;;1.94;100.00
43878;BME280;29815;48.184;11.268;2023-02-13T15:10:06;97433.91;;;1.91;100.00
43878;BME280;29815;48.184;11.268;2023-02-13T15:12:57;97440.22;;;1.90;100.00
43878;BME280;29815;48.184;11.268;2023-02-13T15:15:31;97439.53;;;1.88;100.00
43878;BME280;29815;48.184;11.268;2023-02-13T15:18:09;97441.53;;;1.86;100.00
43878;BME280;29815;48.184;11.268;2023-02-13T15:20:42;97443.69;;;1.82;100.00
43878;BME280;29815;48.184;11.268;2023-02-13T15:23:20;97443.38;;;1.77;100.00
43878;BME280;29815;48.184;11.268;2023-02-13T15:25:59;97439.06;;;1.76;100.00
43878;BME280;29815;48.184;11.268;2023-02-13T15:28:31;97434.41;;;1.70;100.00
43878;BME280;29815;48.184;11.268;2023-02-13T15:31:16;97427.44;;;1.69;100.00
43878;BME280;29815;48.184;11.268;2023-02-13T15:33:50;97426.63;;;1.68;100.00
43878;BME280;29815;48.184;11.268;2023-02-13T15:36:23;97433.75;;;1.68;100.00
43878;BME280;29815;48.184;11.268;2023-02-13T15:38:58;97423.78;;;1.70;100.00
43878;BME280;29815;48.184;11.268;2023-02-13T15:41:32;97418.31;;;1.72;100.00
43878;BME280;29815;48.184;11.268;2023-02-13T15:44:05;97422.47;;;1.74;100.00
43878;BME280;29815;48.184;11.268;2023-02-13T15:46:36;97423.97;;;1.77;100.00
43878;BME280;29815;48.184;11.268;2023-02-13T15:49:10;97424.28;;;1.74;100.00
43878;BME280;29815;48.184;11.268;2023-02-13T15:51:43;97425.13;;;1.74;100.00
43878;BME280;29815;48.184;11.268;2023-02-13T15:54:25;97419.31;;;1.70;100.00
43878;BME280;29815;48.184;11.268;2023-02-13T15:56:59;97428.28;;;1.69;100.00
43878;BME280;29815;48.184;11.268;2023-02-13T15:59:33;97430.94;;;1.69;100.00
43878;BME280;29815;48.184;11.268;2023-02-13T16:02:12;97435.56;;;1.67;100.00
43878;BME280;29815;48.184;11.268;2023-02-13T16:04:45;97429.59;;;1.65;100.00
43878;BME280;29815;48.184;11.268;2023-02-13T16:07:17;97430.44;;;1.66;100.00
43878;BME280;29815;48.184;11.268;2023-02-13T16:09:47;97437.75;;;1.64;100.00
43878;BME280;29815;48.184;11.268;2023-02-13T16:12:20;97435.28;;;1.62;100.00
43878;BME280;29815;48.184;11.268;2023-02-13T16:14:54;97426.66;;;1.60;100.00
43878;BME280;29815;48.184;11.268;2023-02-13T16:17:30;97433.94;;;1.58;100.00
43878;BME280;29815;48.184;11.268;2023-02-13T16:20:04;97441.25;;;1.56;100.00
43878;BME280;29815;48.184;11.268;2023-02-13T16:22:38;97433.78;;;1.52;100.00
43878;BME280;29815;48.184;11.268;2023-02-13T16:25:17;97439.09;;;1.52;100.00
43878;BME280;29815;48.184;11.268;2023-02-13T16:27:53;97443.06;;;1.48;100.00
43878;BME280;29815;48.184;11.268;2023-02-13T16:30:31;97438.25;;;1.43;100.00
43878;BME280;29815;48.184;11.268;2023-02-13T16:33:16;97440.91;;;1.43;100.00
43878;BME280;29815;48.184;11.268;2023-02-13T16:35:51;97442.88;;;1.41;100.00
43878;BME280;29815;48.184;11.268;2023-02-13T16:38:30;97445.88;;;1.38;100.00
43878;BME280;29815;48.184;11.268;2023-02-13T16:41:03;97444.41;;;1.35;100.00
43878;BME280;29815;48.184;11.268;2023-02-13T16:43:43;97448.53;;;1.30;100.00
43878;BME280;29815;48.184;11.268;2023-02-13T16:46:30;97453.34;;;1.26;100.00
43878;BME280;29815;48.184;11.268;2023-02-13T16:49:18;97462.13;;;1.19;100.00
43878;BME280;29815;48.184;11.268;2023-02-13T16:51:59;97463.44;;;1.15;100.00